sensor_id;sensor_type;location;lat;lon;timestamp;temperature;humidity
41547;DHT22;27271;45.412;10.852;2023-07-13T04:41:54;20.90;99.90
41547;DHT22;27271;45.412;10.852;2023-07-13T04:45:17;20.90;99.90
41547;DHT22;27271;45.412;10.852;2023-07-13T04:48:40;21.10;99.90
41547;DHT22;27271;45.412;10.852;2023-07-13T04:52:02;21.30;99.90
41547;DHT22;27271;45.412;10.852;2023-07-13T04:55:24;21.40;99.90
41547;DHT22;27271;45.412;10.852;2023-07-13T04:58:46;21.40;99.90
41547;DHT22;27271;45.412;10.852;2023-07-13T05:02:08;21.60;57.30
41547;DHT22;27271;45.412;10.852;2023-07-13T05:05:31;21.80;42.90
41547;DHT22;27271;45.412;10.852;2023-07-13T05:08:53;22.10;30.30
41547;DHT22;27271;45.412;10.852;2023-07-13T05:12:15;22.30;5.80
41547;DHT22;27271;45.412;10.852;2023-07-13T05:15:37;22.60;17.00
41547;DHT22;27271;45.412;10.852;2023-07-13T05:18:59;22.80;1.00
41547;DHT22;27271;45.412;10.852;2023-07-13T05:22:21;22.80;9.30
41547;DHT22;27271;45.412;10.852;2023-07-13T05:25:45;22.80;1.00
41547;DHT22;27271;45.412;10.852;2023-07-13T05:29:26;22.80;1.00
41547;DHT22;27271;45.412;10.852;2023-07-13T05:37:28;22.60;13.80
41547;DHT22;27271;45.412;10.852;2023-07-13T05:41:00;22.30;1.00
41547;DHT22;27271;45.412;10.852;2023-07-13T05:44:34;22.30;5.80
41547;DHT22;27271;45.412;10.852;2023-07-13T05:47:57;22.40;1.00
41547;DHT22;27271;45.412;10.852;2023-07-13T05:51:19;22.50;6.80
41547;DHT22;27271;45.412;10.852;2023-07-13T05:54:41;22.80;1.00
41547;DHT22;27271;45.412;10.852;2023-07-13T05:58:03;23.10;1.00
41547;DHT22;27271;45.412;10.852;2023-07-13T06:01:25;23.20;1.00
41547;DHT22;27271;45.412;10.852;2023-07-13T06:04:47;23.30;1.00
41547;DHT22;27271;45.412;10.852;2023-07-13T06:08:12;23.30;1.00
41547;DHT22;27271;45.412;10.852;2023-07-13T06:11:40;23.20;1.00
41547;DHT22;27271;45.412;10.852;2023-07-13T06:15:03;23.10;1.00
41547;DHT22;27271;45.412;10.852;2023-07-13T06:18:25;22.80;1.00
41547;DHT22;27271;45.412;10.852;2023-07-13T06:21:47;22.70;1.00
41547;DHT22;27271;45.412;10.852;2023-07-13T06:25:10;22.40;1.00
41547;DHT22;27271;45.412;10.852;2023-07-13T06:28:34;22.40;1.00
41547;DHT22;27271;45.412;10.852;2023-07-13T06:31:56;22.50;1.00
41547;DHT22;27271;45.412;10.852;2023-07-13T06:35:19;22.60;1.00
41547;DHT22;27271;45.412;10.852;2023-07-13T06:38:41;22.60;1.00
41547;DHT22;27271;45.412;10.852;2023-07-13T06:42:05;22.70;1.00
41547;DHT22;27271;45.412;10.852;2023-07-13T06:45:43;22.70;1.00
41547;DHT22;27271;45.412;10.852;2023-07-13T06:49:08;22.70;1.00
41547;DHT22;27271;45.412;10.852;2023-07-13T06:52:31;22.70;1.00
41547;DHT22;27271;45.412;10.852;2023-07-13T06:55:53;22.70;1.00
41547;DHT22;27271;45.412;10.852;2023-07-13T06:59:15;22.70;1.00
41547;DHT22;27271;45.412;10.852;2023-07-13T07:02:37;22.60;1.00
41547;DHT22;27271;45.412;10.852;2023-07-13T07:06:11;22.50;1.00
41547;DHT22;27271;45.412;10.852;2023-07-13T07:09:34;22.60;1.00
41547;DHT22;27271;45.412;10.852;2023-07-13T07:12:56;22.60;1.00
41547;DHT22;27271;45.412;10.852;2023-07-13T07:16:19;22.80;1.00
41547;DHT22;27271;45.412;10.852;2023-07-13T07:19:41;22.90;1.00
41547;DHT22;27271;45.412;10.852;2023-07-13T07:23:03;23.10;1.00
41547;DHT22;27271;45.412;10.852;2023-07-13T07:26:26;23.30;1.00
41547;DHT22;27271;45.412;10.852;2023-07-13T07:29:53;23.50;1.00
41547;DHT22;27271;45.412;10.852;2023-07-13T07:33:35;23.60;1.00
41547;DHT22;27271;45.412;10.852;2023-07-13T07:37:00;23.90;1.00
41547;DHT22;27271;45.412;10.852;2023-07-13T07:40:25;24.40;1.00
41547;DHT22;27271;45.412;10.852;2023-07-13T07:43:51;24.60;1.00
41547;DHT22;27271;45.412;10.852;2023-07-13T07:47:13;24.90;1.00
41547;DHT22;27271;45.412;10.852;2023-07-13T07:50:35;24.90;1.00
41547;DHT22;27271;45.412;10.852;2023-07-13T07:53:57;25.00;1.00
41547;DHT22;27271;45.412;10.852;2023-07-13T07:57:19;25.00;1.00
41547;DHT22;27271;45.412;10.852;2023-07-13T08:01:03;25.00;1.00
41547;DHT22;27271;45.412;10.852;2023-07-13T08:04:29;24.80;1.00
41547;DHT22;27271;45.412;10.852;2023-07-13T08:07:55;24.70;1.00
41547;DHT22;27271;45.412;10.852;2023-07-13T08:11:17;24.50;1.00
41547;DHT22;27271;45.412;10.852;2023-07-13T08:14:43;24.30;1.00
41547;DHT22;27271;45.412;10.852;2023-07-13T08:18:14;24.30;1.00
41547;DHT22;27271;45.412;10.852;2023-07-13T08:21:37;24.20;1.00
41547;DHT22;27271;45.412;10.852;2023-07-13T08:24:59;24.20;1.00
41547;DHT22;27271;45.412;10.852;2023-07-13T08:28:22;24.10;1.00
41547;DHT22;27271;45.412;10.852;2023-07-13T08:31:44;24.10;1.00
41547;DHT22;27271;45.412;10.852;2023-07-13T08:35:07;24.10;1.00
41547;DHT22;27271;45.412;10.852;2023-07-13T08:38:29;24.10;1.00
41547;DHT22;27271;45.412;10.852;2023-07-13T08:41:58;24.00;1.00
41547;DHT22;27271;45.412;10.852;2023-07-13T08:45:43;23.80;1.00
41547;DHT22;27271;45.412;10.852;2023-07-13T08:49:10;23.80;1.00
41547;DHT22;27271;45.412;10.852;2023-07-13T08:52:39;23.90;1.00
41547;DHT22;27271;45.412;10.852;2023-07-13T08:56:02;24.00;1.00
41547;DHT22;27271;45.412;10.852;2023-07-13T08:59:28;24.00;1.00
41547;DHT22;27271;45.412;10.852;2023-07-13T09:02:57;23.90;1.00
41547;DHT22;27271;45.412;10.852;2023-07-13T09:06:24;23.90;1.00
41547;DHT22;27271;45.412;10.852;2023-07-13T09:13:40;23.70;1.00
41547;DHT22;27271;45.412;10.852;2023-07-13T09:17:14;23.60;1.00
41547;DHT22;27271;45.412;10.852;2023-07-13T09:24:37;23.70;1.00
41547;DHT22;27271;45.412;10.852;2023-07-13T09:31:35;23.90;59.00
41547;DHT22;27271;45.412;10.852;2023-07-13T09:34:58;23.90;1.00
41547;DHT22;27271;45.412;10.852;2023-07-13T09:38:22;24.20;1.00
41547;DHT22;27271;45.412;10.852;2023-07-13T09:45:29;24.90;1.00
41547;DHT22;27271;45.412;10.852;2023-07-13T09:48:51;25.70;1.00
41547;DHT22;27271;45.412;10.852;2023-07-13T09:52:16;26.50;1.00
41547;DHT22;27271;45.412;10.852;2023-07-13T09:55:39;27.60;1.00
41547;DHT22;27271;45.412;10.852;2023-07-13T09:59:01;29.50;1.00
41547;DHT22;27271;45.412;10.852;2023-07-13T10:05:49;32.60;99.90
41547;DHT22;27271;45.412;10.852;2023-07-13T10:09:17;33.60;99.90
41547;DHT22;27271;45.412;10.852;2023-07-13T10:12:41;33.90;99.90
41547;DHT22;27271;45.412;10.852;2023-07-13T10:16:04;34.80;99.90
41547;DHT22;27271;45.412;10.852;2023-07-13T10:19:37;34.50;99.90
41547;DHT22;27271;45.412;10.852;2023-07-13T10:23:02;33.30;99.90
41547;DHT22;27271;45.412;10.852;2023-07-13T10:26:29;32.40;99.90
41547;DHT22;27271;45.412;10.852;2023-07-13T10:33:42;33.50;99.90
41547;DHT22;27271;45.412;10.852;2023-07-13T10:37:07;34.30;99.90
41547;DHT22;27271;45.412;10.852;2023-07-13T10:40:40;34.10;99.90
41547;DHT22;27271;45.412;10.852;2023-07-13T10:44:04;33.30;99.90
41547;DHT22;27271;45.412;10.852;2023-07-13T10:47:30;33.40;99.90
41547;DHT22;27271;45.412;10.852;2023-07-13T10:50:54;32.30;99.90
41547;DHT22;27271;45.412;10.852;2023-07-13T10:54:30;31.00;99.90
41547;DHT22;27271;45.412;10.852;2023-07-13T10:57:53;30.70;99.90
41547;DHT22;27271;45.412;10.852;2023-07-13T11:01:16;30.00;99.90
41547;DHT22;27271;45.412;10.852;2023-07-13T11:04:47;30.10;99.90
41547;DHT22;27271;45.412;10.852;2023-07-13T11:08:33;30.00;99.90
41547;DHT22;27271;45.412;10.852;2023-07-13T11:12:03;31.40;99.90
41547;DHT22;27271;45.412;10.852;2023-07-13T11:15:44;31.80;99.90
41547;DHT22;27271;45.412;10.852;2023-07-13T11:26:40;32.00;99.90
41547;DHT22;27271;45.412;10.852;2023-07-13T11:33:54;31.90;99.90
41547;DHT22;27271;45.412;10.852;2023-07-13T11:37:18;32.20;99.90
41547;DHT22;27271;45.412;10.852;2023-07-13T11:40:42;32.70;99.90
41547;DHT22;27271;45.412;10.852;2023-07-13T11:47:30;33.20;99.90
41547;DHT22;27271;45.412;10.852;2023-07-13T11:51:01;33.10;99.90
41547;DHT22;27271;45.412;10.852;2023-07-13T11:54:31;33.20;99.90
41547;DHT22;27271;45.412;10.852;2023-07-13T11:58:01;32.30;99.90
41547;DHT22;27271;45.412;10.852;2023-07-13T12:01:27;31.80;99.90
41547;DHT22;27271;45.412;10.852;2023-07-13T12:04:55;32.30;99.90
41547;DHT22;27271;45.412;10.852;2023-07-13T12:08:18;32.40;99.90
41547;DHT22;27271;45.412;10.852;2023-07-13T12:11:45;32.00;99.90
41547;DHT22;27271;45.412;10.852;2023-07-13T12:15:08;32.00;99.90
41547;DHT22;27271;45.412;10.852;2023-07-13T12:18:31;31.70;99.90
41547;DHT22;27271;45.412;10.852;2023-07-13T12:22:02;31.60;99.90
41547;DHT22;27271;45.412;10.852;2023-07-13T12:25:44;31.90;99.90
41547;DHT22;27271;45.412;10.852;2023-07-13T12:29:07;32.20;99.90
41547;DHT22;27271;45.412;10.852;2023-07-13T12:32:30;32.20;99.90
41547;DHT22;27271;45.412;10.852;2023-07-13T12:36:20;32.50;99.90
41547;DHT22;27271;45.412;10.852;2023-07-13T12:40:32;32.80;99.90
41547;DHT22;27271;45.412;10.852;2023-07-13T12:44:40;32.50;99.90
41547;DHT22;27271;45.412;10.852;2023-07-13T12:48:44;31.40;99.90
41547;DHT22;27271;45.412;10.852;2023-07-13T12:52:34;31.70;99.90
41547;DHT22;27271;45.412;10.852;2023-07-13T12:56:09;32.40;99.90
41547;DHT22;27271;45.412;10.852;2023-07-13T13:00:35;33.10;99.90
41547;DHT22;27271;45.412;10.852;2023-07-13T13:04:09;33.70;99.90
41547;DHT22;27271;45.412;10.852;2023-07-13T13:07:35;33.90;99.90
41547;DHT22;27271;45.412;10.852;2023-07-13T13:10:58;33.70;99.90
41547;DHT22;27271;45.412;10.852;2023-07-13T13:14:20;33.70;99.90
41547;DHT22;27271;45.412;10.852;2023-07-13T13:17:43;33.70;99.90
41547;DHT22;27271;45.412;10.852;2023-07-13T13:21:06;33.70;99.90
41547;DHT22;27271;45.412;10.852;2023-07-13T13:24:29;33.80;99.90
41547;DHT22;27271;45.412;10.852;2023-07-13T13:27:51;33.70;99.90
41547;DHT22;27271;45.412;10.852;2023-07-13T13:31:14;33.40;99.90
41547;DHT22;27271;45.412;10.852;2023-07-13T13:34:37;33.00;99.90
41547;DHT22;27271;45.412;10.852;2023-07-13T13:37:59;33.40;99.90
41547;DHT22;27271;45.412;10.852;2023-07-13T13:41:22;33.80;99.90
41547;DHT22;27271;45.412;10.852;2023-07-13T13:44:44;34.20;99.90
41547;DHT22;27271;45.412;10.852;2023-07-13T13:48:21;34.60;99.90
41547;DHT22;27271;45.412;10.852;2023-07-13T13:51:53;34.80;99.90
41547;DHT22;27271;45.412;10.852;2023-07-13T13:55:18;34.80;99.90
41547;DHT22;27271;45.412;10.852;2023-07-13T13:58:43;34.70;99.90
41547;DHT22;27271;45.412;10.852;2023-07-13T14:02:25;34.50;99.90
41547;DHT22;27271;45.412;10.852;2023-07-13T14:05:48;34.30;99.90
41547;DHT22;27271;45.412;10.852;2023-07-13T14:09:12;33.40;99.90
41547;DHT22;27271;45.412;10.852;2023-07-13T14:12:36;33.30;99.90
41547;DHT22;27271;45.412;10.852;2023-07-13T14:16:25;33.50;99.90
41547;DHT22;27271;45.412;10.852;2023-07-13T14:19:51;33.60;99.90
41547;DHT22;27271;45.412;10.852;2023-07-13T14:23:18;33.00;99.90
41547;DHT22;27271;45.412;10.852;2023-07-13T14:26:41;32.90;99.90
41547;DHT22;27271;45.412;10.852;2023-07-13T14:30:21;32.80;99.90
41547;DHT22;27271;45.412;10.852;2023-07-13T14:33:44;32.70;99.90
41547;DHT22;27271;45.412;10.852;2023-07-13T14:37:13;33.00;99.90
41547;DHT22;27271;45.412;10.852;2023-07-13T14:40:36;33.60;99.90
41547;DHT22;27271;45.412;10.852;2023-07-13T14:44:11;34.10;99.90
41547;DHT22;27271;45.412;10.852;2023-07-13T14:47:34;34.80;99.90
41547;DHT22;27271;45.412;10.852;2023-07-13T14:50:58;35.20;99.90
41547;DHT22;27271;45.412;10.852;2023-07-13T14:54:20;35.10;99.90
41547;DHT22;27271;45.412;10.852;2023-07-13T14:57:43;35.10;99.90
41547;DHT22;27271;45.412;10.852;2023-07-13T15:01:05;35.00;99.90
41547;DHT22;27271;45.412;10.852;2023-07-13T15:04:28;34.70;99.90
41547;DHT22;27271;45.412;10.852;2023-07-13T15:07:52;34.40;99.90
41547;DHT22;27271;45.412;10.852;2023-07-13T15:11:17;34.60;99.90
41547;DHT22;27271;45.412;10.852;2023-07-13T15:14:40;34.80;99.90
41547;DHT22;27271;45.412;10.852;2023-07-13T15:18:02;34.70;99.90
41547;DHT22;27271;45.412;10.852;2023-07-13T15:21:25;34.60;99.90
41547;DHT22;27271;45.412;10.852;2023-07-13T15:24:47;34.20;99.90
41547;DHT22;27271;45.412;10.852;2023-07-13T15:28:10;34.10;99.90
41547;DHT22;27271;45.412;10.852;2023-07-13T15:31:34;34.30;99.90
41547;DHT22;27271;45.412;10.852;2023-07-13T15:34:59;34.30;99.90
41547;DHT22;27271;45.412;10.852;2023-07-13T15:38:23;34.10;99.90
41547;DHT22;27271;45.412;10.852;2023-07-13T15:41:47;33.90;99.90
41547;DHT22;27271;45.412;10.852;2023-07-13T15:45:23;33.90;99.90
41547;DHT22;27271;45.412;10.852;2023-07-13T15:48:51;33.90;99.90
41547;DHT22;27271;45.412;10.852;2023-07-13T15:52:18;33.50;99.90
41547;DHT22;27271;45.412;10.852;2023-07-13T15:55:46;33.20;99.90
41547;DHT22;27271;45.412;10.852;2023-07-13T16:00:30;32.60;99.90
41547;DHT22;27271;45.412;10.852;2023-07-13T16:03:53;31.90;99.90
41547;DHT22;27271;45.412;10.852;2023-07-13T16:07:17;32.00;99.90
41547;DHT22;27271;45.412;10.852;2023-07-13T16:10:55;31.70;99.90
41547;DHT22;27271;45.412;10.852;2023-07-13T16:20:53;31.20;99.90
41547;DHT22;27271;45.412;10.852;2023-07-13T16:24:58;30.60;99.90
41547;DHT22;27271;45.412;10.852;2023-07-13T16:28:36;30.90;99.90
41547;DHT22;27271;45.412;10.852;2023-07-13T16:32:02;31.20;99.90
41547;DHT22;27271;45.412;10.852;2023-07-13T16:35:27;31.60;99.90
41547;DHT22;27271;45.412;10.852;2023-07-13T16:38:49;31.60;99.90
41547;DHT22;27271;45.412;10.852;2023-07-13T16:42:12;31.60;99.90
41547;DHT22;27271;45.412;10.852;2023-07-13T16:45:34;31.90;99.90
41547;DHT22;27271;45.412;10.852;2023-07-13T16:48:58;32.20;99.90
41547;DHT22;27271;45.412;10.852;2023-07-13T16:52:42;32.20;99.90
41547;DHT22;27271;45.412;10.852;2023-07-13T17:01:52;32.40;99.90
41547;DHT22;27271;45.412;10.852;2023-07-13T17:05:16;32.30;99.90
41547;DHT22;27271;45.412;10.852;2023-07-13T17:08:40;32.30;99.90
41547;DHT22;27271;45.412;10.852;2023-07-13T17:12:08;32.30;99.90
41547;DHT22;27271;45.412;10.852;2023-07-13T17:15:55;32.10;99.90
41547;DHT22;27271;45.412;10.852;2023-07-13T17:19:31;31.60;99.90
41547;DHT22;27271;45.412;10.852;2023-07-13T17:22:59;31.60;99.90
41547;DHT22;27271;45.412;10.852;2023-07-13T17:26:22;31.70;99.90
41547;DHT22;27271;45.412;10.852;2023-07-13T17:29:44;31.70;99.90
41547;DHT22;27271;45.412;10.852;2023-07-13T17:36:56;31.70;99.90
41547;DHT22;27271;45.412;10.852;2023-07-13T17:40:21;31.40;99.90
41547;DHT22;27271;45.412;10.852;2023-07-13T17:43:45;31.20;99.90
41547;DHT22;27271;45.412;10.852;2023-07-13T17:47:25;31.00;99.90
41547;DHT22;27271;45.412;10.852;2023-07-13T17:50:49;30.80;99.90
41547;DHT22;27271;45.412;10.852;2023-07-13T17:54:14;30.40;99.90
41547;DHT22;27271;45.412;10.852;2023-07-13T17:57:37;29.90;99.90
41547;DHT22;27271;45.412;10.852;2023-07-13T18:00:59;29.60;99.90
41547;DHT22;27271;45.412;10.852;2023-07-13T18:04:21;29.20;99.90
41547;DHT22;27271;45.412;10.852;2023-07-13T18:07:44;29.00;99.90
41547;DHT22;27271;45.412;10.852;2023-07-13T18:11:08;28.70;99.90
41547;DHT22;27271;45.412;10.852;2023-07-13T18:14:31;28.50;99.90
41547;DHT22;27271;45.412;10.852;2023-07-13T18:17:59;28.30;99.90
41547;DHT22;27271;45.412;10.852;2023-07-13T18:21:22;28.20;99.90
41547;DHT22;27271;45.412;10.852;2023-07-13T18:24:46;28.00;99.90
41547;DHT22;27271;45.412;10.852;2023-07-13T18:28:08;27.80;99.90
41547;DHT22;27271;45.412;10.852;2023-07-13T18:31:33;27.70;99.90
41547;DHT22;27271;45.412;10.852;2023-07-13T18:34:56;27.50;99.90
41547;DHT22;27271;45.412;10.852;2023-07-13T18:38:21;27.40;99.90
41547;DHT22;27271;45.412;10.852;2023-07-13T18:41:46;27.20;99.90
41547;DHT22;27271;45.412;10.852;2023-07-13T18:45:38;27.10;99.90
41547;DHT22;27271;45.412;10.852;2023-07-13T18:49:00;26.90;99.90
41547;DHT22;27271;45.412;10.852;2023-07-13T18:52:23;26.70;99.90
41547;DHT22;27271;45.412;10.852;2023-07-13T18:55:46;26.50;99.90
41547;DHT22;27271;45.412;10.852;2023-07-13T18:59:09;26.40;99.90
41547;DHT22;27271;45.412;10.852;2023-07-13T19:02:31;26.20;99.90
41547;DHT22;27271;45.412;10.852;2023-07-13T19:05:53;26.00;99.90
41547;DHT22;27271;45.412;10.852;2023-07-13T19:09:22;25.70;99.90
41547;DHT22;27271;45.412;10.852;2023-07-13T19:12:46;25.40;99.90
41547;DHT22;27271;45.412;10.852;2023-07-13T19:16:10;25.00;1.00
41547;DHT22;27271;45.412;10.852;2023-07-13T19:19:33;24.70;1.00
41547;DHT22;27271;45.412;10.852;2023-07-13T19:22:59;24.50;1.00
41547;DHT22;27271;45.412;10.852;2023-07-13T19:26:28;24.30;1.00
41547;DHT22;27271;45.412;10.852;2023-07-13T19:29:51;24.10;1.00
41547;DHT22;27271;45.412;10.852;2023-07-13T19:33:16;23.90;1.00
41547;DHT22;27271;45.412;10.852;2023-07-13T19:36:39;23.80;1.00
41547;DHT22;27271;45.412;10.852;2023-07-13T19:40:01;23.70;1.00
41547;DHT22;27271;45.412;10.852;2023-07-13T19:43:24;23.40;1.00
41547;DHT22;27271;45.412;10.852;2023-07-13T19:46:46;23.20;1.00
41547;DHT22;27271;45.412;10.852;2023-07-13T19:50:11;23.20;1.00
41547;DHT22;27271;45.412;10.852;2023-07-13T19:53:35;23.10;1.00
41547;DHT22;27271;45.412;10.852;2023-07-13T19:56:57;23.20;1.00
41547;DHT22;27271;45.412;10.852;2023-07-13T20:00:23;23.10;1.00
41547;DHT22;27271;45.412;10.852;2023-07-13T20:03:46;23.20;1.00
41547;DHT22;27271;45.412;10.852;2023-07-13T20:07:20;23.20;1.00
41547;DHT22;27271;45.412;10.852;2023-07-13T20:10:42;23.20;1.00
41547;DHT22;27271;45.412;10.852;2023-07-13T20:14:25;23.30;1.00
41547;DHT22;27271;45.412;10.852;2023-07-13T20:17:53;23.40;1.00
41547;DHT22;27271;45.412;10.852;2023-07-13T20:21:16;23.30;1.00
41547;DHT22;27271;45.412;10.852;2023-07-13T20:24:38;23.40;1.00
41547;DHT22;27271;45.412;10.852;2023-07-13T20:28:00;23.30;1.00
41547;DHT22;27271;45.412;10.852;2023-07-13T20:31:32;23.30;1.00
41547;DHT22;27271;45.412;10.852;2023-07-13T20:34:56;23.30;1.00
41547;DHT22;27271;45.412;10.852;2023-07-13T20:38:19;23.20;1.00
41547;DHT22;27271;45.412;10.852;2023-07-13T20:41:41;23.20;1.00
41547;DHT22;27271;45.412;10.852;2023-07-13T20:45:04;23.20;1.00
41547;DHT22;27271;45.412;10.852;2023-07-13T20:48:36;23.20;1.00
41547;DHT22;27271;45.412;10.852;2023-07-13T20:51:59;23.20;1.00
41547;DHT22;27271;45.412;10.852;2023-07-13T20:55:26;23.10;1.00
41547;DHT22;27271;45.412;10.852;2023-07-13T20:58:49;23.10;1.00
41547;DHT22;27271;45.412;10.852;2023-07-13T21:02:32;23.10;1.00
41547;DHT22;27271;45.412;10.852;2023-07-13T21:06:06;23.10;1.00
41547;DHT22;27271;45.412;10.852;2023-07-13T21:09:28;23.10;1.00
41547;DHT22;27271;45.412;10.852;2023-07-13T21:12:52;23.10;1.00
41547;DHT22;27271;45.412;10.852;2023-07-13T21:19:38;23.00;1.00
41547;DHT22;27271;45.412;10.852;2023-07-13T21:23:00;22.90;1.00
41547;DHT22;27271;45.412;10.852;2023-07-13T21:26:22;22.80;1.00
41547;DHT22;27271;45.412;10.852;2023-07-13T21:29:44;22.80;1.00
41547;DHT22;27271;45.412;10.852;2023-07-13T21:33:13;22.60;1.00
41547;DHT22;27271;45.412;10.852;2023-07-13T21:36:37;22.40;1.00
41547;DHT22;27271;45.412;10.852;2023-07-13T21:39:59;22.10;1.00
41547;DHT22;27271;45.412;10.852;2023-07-13T21:43:22;22.00;1.00
41547;DHT22;27271;45.412;10.852;2023-07-13T21:46:44;21.90;1.00
41547;DHT22;27271;45.412;10.852;2023-07-13T21:50:07;21.70;1.00
41547;DHT22;27271;45.412;10.852;2023-07-13T21:53:31;21.60;1.00
41547;DHT22;27271;45.412;10.852;2023-07-13T21:56:53;21.60;1.00
41547;DHT22;27271;45.412;10.852;2023-07-13T22:00:17;21.60;1.00
41547;DHT22;27271;45.412;10.852;2023-07-13T22:03:40;21.70;1.00
41547;DHT22;27271;45.412;10.852;2023-07-13T22:07:02;21.70;1.00
41547;DHT22;27271;45.412;10.852;2023-07-13T22:10:27;21.40;1.00
41547;DHT22;27271;45.412;10.852;2023-07-13T22:13:51;21.30;1.00
41547;DHT22;27271;45.412;10.852;2023-07-13T22:17:14;21.20;1.00
41547;DHT22;27271;45.412;10.852;2023-07-13T22:20:40;21.10;1.00
41547;DHT22;27271;45.412;10.852;2023-07-13T22:24:04;21.20;1.00
41547;DHT22;27271;45.412;10.852;2023-07-13T22:27:27;21.30;1.00
